Soaring Guidance
Issued by NWS Reno, NV

Home | Current Version | Previous Version | Text Only | Print | Product List | Glossary On
Versions: 1 2 3 4 5 6 7 8 9 10 11 12 13 14 15 16
000
UXUS97 KREV 161411
SRGREV

SOARING FORECAST
NATIONAL WEATHER SERVICE - RENO NV
700 AM PDT WED AUG 16 2017

THIS SOARING FORECAST IS FOR THE EASTERN SIERRA AND WESTERN NEVADA
WITH SPECIFIC INDICES FOR THE GREATER RENO AREA.

THIS FORECAST IS PREPARED DAILY BY 700 AM AND IS NOT UPDATED.

FOR CURRENT FLIGHT CONDITIONS...FORECASTS...AND ADVISORIES...ACCESS
YOUR LOCAL BRIEFING OUTLET OR FLIGHT SERVICE STATION.

*******************************************************************
FORECASTED LOCAL INDICES FOR RENO:        TODAY     YESTERDAY
FORECASTED MAX TEMP AT RENO (DEG F).....     92          90
FORECASTED TRIGGER TEMPERATURE (DEG F)..     78          71
   EXCEEDED YESTERDAY BY 955 AM PDT
FORECASTED MAXIMUM ALTITUDE (FT MSL)....  18000       17200
FORECASTED SOARING INDEX (FPM)..........    906        1056
FORECASTED K-INDEX.........VALID 18Z....     30          28
FORECASTED K-INDEX.........VALID 00Z....     33          30
FORECASTED LIFTED INDEX....VALID 18Z....      0           4
FORECASTED LIFTED INDEX....VALID 00Z....     -1           1

AFTERNOON WINDS ALOFT FORECAST
MSL (FT) WIND/TEMP
9000  0207/+16
10000 0207/+13
12000 0207/+07
14000 -2008/+01
16000 -3709/-04
18000 3310/-09
24000 3515/-21
30000 3524/-36
34000 3529/-45
39000 3427/-56

SLIDE MOUNTAIN DATA:
     DATE       TIME     TEMP  DEWPT   RH         WIND (MPH)
                        (F)   (F)           | DIR  SPEED GUST
2017-08-16    05:20      51    41     57    | 034   14   23
2017-08-16    05:00      51    41     58    | 024   12   22
2017-08-16    04:50      51    41     58    | 015   10   17
2017-08-16    04:30      51    41     59    | 021   13   20

RENO TAF FORECAST:
KRNO 161130Z 1612/1712 VRB05KT P6SM SCT100 BKN150
     FM161900 02005KT P6SM FEW120 SCT150
     FM170000 33010KT P6SM SCT100 BKN140
     FM170600 34003KT P6SM FEW140

CARSON CITY TAF FORECAST:
KCXP 161130Z 1612/1712 VRB04KT P6SM SCT090 BKN140
     FM161900 03008KT P6SM FEW120 SCT150
     FM170000 32007KT P6SM SCT090 BKN130
     FM170600 VRB02KT P6SM FEW150

OUTLOOK FOR THE RENO-CARSON CITY-MINDEN AREA:
.THURSDAY...SUNNY. HIGHS 89 TO 94. LIGHT WINDS.

SUNRISE AND SUNSET
AUGUST 16 2017........SUNRISE   613 AM PDT   SUNSET   753 PM PDT
AUGUST 17 2017........SUNRISE   614 AM PDT   SUNSET   752 PM PDT


USA.gov is the U.S. government's official web portal to all federal, state and local government web resources and services.